Time;durP1;ratioP1;P1;durP2;ratioP2;P2;SDS_P1;SDS_P2;PMS_P1;PMS_P2;Temp;Humidity;BMP_temperature;BMP_pressure;BME280_temperature;BME280_humidity;BME280_pressure;Samples;Min_cycle;Max_cycle;Signal;HPM_P1;HPM_P2
2023/06/01 00:00:14;;;;;;;5.90;2.88;;;;;;;10.66;71.08;101358.44;5009030;28;20493;-44
2023/06/01 00:02:41;;;;;;;4.93;2.08;;;;;;;10.63;71.71;101360.09;5013718;28;20556;-46
2023/06/01 00:05:08;;;;;;;5.05;1.63;;;;;;;10.61;70.73;101360.06;5013747;28;20049;-45
2023/06/01 00:07:34;;;;;;;6.45;1.70;;;;;;;10.63;70.43;101353.22;5018318;28;20045;-45
2023/06/01 00:10:01;;;;;;;5.10;2.22;;;;;;;10.61;71.07;101356.63;5013269;28;20046;-44
2023/06/01 00:12:28;;;;;;;6.03;2.03;;;;;;;10.51;71.95;101356.44;5005981;28;20049;-44
2023/06/01 00:14:54;;;;;;;6.43;2.53;;;;;;;10.53;70.99;101352.16;5019391;28;20053;-44
2023/06/01 00:17:23;;;;;;;6.35;2.20;;;;;;;10.49;71.49;101347.78;5016526;28;20050;-44
2023/06/01 00:19:50;;;;;;;7.63;2.55;;;;;;;10.54;70.97;101351.31;5011109;28;20061;-45
2023/06/01 00:22:18;;;;;;;6.53;2.33;;;;;;;10.54;70.97;101351.31;5009757;28;20050;-47
2023/06/01 00:24:46;;;;;;;6.90;2.10;;;;;;;10.58;70.87;101357.44;5021000;28;20080;-46
2023/06/01 00:27:14;;;;;;;8.23;2.70;;;;;;;10.61;70.98;101351.44;5007383;28;20058;-44
2023/06/01 00:29:43;;;;;;;8.27;2.20;;;;;;;10.59;71.68;101350.53;5016116;28;20049;-46
2023/06/01 00:32:11;;;;;;;6.47;2.92;;;;;;;10.60;71.35;101354.88;5015593;28;20060;-45
2023/06/01 00:34:40;;;;;;;8.05;2.72;;;;;;;10.60;70.65;101355.72;5005420;28;20069;-50
2023/06/01 00:37:09;;;;;;;7.05;2.35;;;;;;;10.57;71.78;101349.63;5010527;28;20169;-46
2023/06/01 00:39:37;;;;;;;10.73;3.70;;;;;;;10.58;71.47;101351.38;5011237;28;20053;-44
2023/06/01 00:42:06;;;;;;;6.60;2.55;;;;;;;10.58;71.48;101353.97;5021470;28;20254;-45
2023/06/01 00:44:35;;;;;;;6.45;2.05;;;;;;;10.55;70.87;101349.59;5010643;28;20049;-45
2023/06/01 00:47:03;;;;;;;6.30;2.53;;;;;;;10.56;71.48;101360.81;5020404;28;20057;-46
2023/06/01 00:49:31;;;;;;;6.47;2.42;;;;;;;10.53;71.65;101369.41;5015126;28;20045;-47
2023/06/01 00:52:00;;;;;;;6.47;1.67;;;;;;;10.46;70.67;101363.25;5013827;28;20080;-46
2023/06/01 00:54:29;;;;;;;8.60;2.25;;;;;;;10.48;71.42;101360.69;5013005;28;20041;-47
2023/06/01 00:57:00;;;;;;;5.10;1.83;;;;;;;10.44;71.16;101359.75;5018232;28;20565;-47
2023/06/01 00:59:27;;;;;;;7.00;2.35;;;;;;;10.43;70.61;101355.38;5022233;28;20053;-45
2023/06/01 01:01:54;;;;;;;5.38;2.13;;;;;;;10.41;71.11;101349.31;5016567;28;20512;-45
2023/06/01 01:04:25;;;;;;;5.43;2.20;;;;;;;10.40;71.08;101348.44;5013863;28;20049;-45
2023/06/01 01:12:19;;;;;;;8.88;4.32;;;;;;;10.43;70.79;101352.78;5119633;27;20379;-43
2023/06/01 01:14:55;;;;;;;9.15;4.50;;;;;;;10.43;71.22;101357.97;5056681;28;20048;-43
2023/06/01 01:17:33;;;;;;;7.20;3.83;;;;;;;10.44;70.31;101359.75;5095380;28;20048;-44
2023/06/01 01:20:08;;;;;;;10.85;4.82;;;;;;;10.46;71.15;101346.81;5103987;28;20054;-44
2023/06/01 01:23:05;;;;;;;8.23;3.85;;;;;;;10.46;70.37;101347.72;5102979;28;20127;-43
2023/06/01 01:25:40;;;;;;;;;;;;;;;10.38;70.61;101344.06;5103566;28;20145;-45
2023/06/01 01:31:04;;;;;;;6.32;2.38;;;;;;;10.46;71.43;101347.72;5045928;28;20399;-44
2023/06/01 01:33:33;;;;;;;7.00;2.47;;;;;;;10.47;71.21;101349.44;5023173;28;20053;-44
2023/06/01 01:36:01;;;;;;;6.68;2.20;;;;;;;10.47;70.68;101344.28;5021289;28;20049;-43
2023/06/01 01:38:27;;;;;;;7.43;2.35;;;;;;;10.47;71.14;101346.84;5022302;28;20049;-43
2023/06/01 01:40:54;;;;;;;6.70;2.42;;;;;;;10.47;70.65;101344.28;5022576;28;20048;-46
2023/06/01 01:43:22;;;;;;;7.00;2.13;;;;;;;10.41;71.11;101344.13;5020739;28;20045;-44
2023/06/01 01:46:07;;;;;;;6.40;2.28;;;;;;;10.38;70.87;101349.25;5021185;28;20137;-43
2023/06/01 01:48:42;;;;;;;6.00;1.98;;;;;;;10.40;71.10;101347.56;5018912;28;20061;-44
2023/06/01 01:51:19;;;;;;;6.60;2.17;;;;;;;10.41;70.96;101351.91;5018859;28;20053;-46
2023/06/01 01:53:50;;;;;;;7.53;2.75;;;;;;;10.40;70.26;101344.97;5010301;28;20045;-44
2023/06/01 01:56:18;;;;;;;6.70;2.25;;;;;;;10.41;71.07;101344.13;5016654;28;20057;-45
2023/06/01 01:58:47;;;;;;;6.60;2.85;;;;;;;10.39;70.74;101338.03;5018459;28;20386;-43
2023/06/01 02:01:15;;;;;;;6.32;2.22;;;;;;;10.41;70.09;101341.56;5020611;28;20050;-43
2023/06/01 02:03:42;;;;;;;9.73;3.38;;;;;;;10.42;70.23;101343.28;5020628;28;20046;-42
2023/06/01 02:06:09;;;;;;;7.25;2.65;;;;;;;10.42;69.93;101338.09;5018143;28;20115;-44
2023/06/01 02:08:36;;;;;;;6.00;2.75;;;;;;;10.44;70.03;101339.03;5018955;28;20410;-45
2023/06/01 02:11:03;;;;;;;7.55;2.63;;;;;;;10.44;70.63;101344.19;5017284;28;20066;-43
2023/06/01 02:13:30;;;;;;;6.82;2.13;;;;;;;10.44;70.49;101339.03;5018831;28;20049;-45
2023/06/01 02:15:56;;;;;;;7.75;2.47;;;;;;;10.42;69.84;101340.69;5012080;28;20045;-44
2023/06/01 02:18:25;;;;;;;9.88;2.58;;;;;;;10.40;69.83;101332.00;5020375;28;20044;-46
2023/06/01 02:20:52;;;;;;;6.72;2.53;;;;;;;10.43;69.85;101332.06;5015947;28;20140;-44
2023/06/01 02:23:18;;;;;;;7.57;2.70;;;;;;;10.45;70.50;101332.13;5018705;28;20045;-45
2023/06/01 02:25:45;;;;;;;10.00;3.22;;;;;;;10.44;70.25;101340.72;5019772;28;20056;-44
2023/06/01 02:28:11;;;;;;;6.18;2.47;;;;;;;10.43;69.83;101337.25;5017538;28;20473;-43
2023/06/01 02:30:38;;;;;;;7.82;3.17;;;;;;;10.44;69.83;101333.84;5021825;28;20049;-42
2023/06/01 02:33:05;;;;;;;5.30;2.10;;;;;;;10.42;70.55;101335.50;5021691;28;20763;-44
2023/06/01 02:35:31;;;;;;;9.07;2.85;;;;;;;10.42;69.55;101330.34;5016868;28;20126;-45
2023/06/01 02:37:58;;;;;;;6.43;2.78;;;;;;;10.42;70.10;101330.34;5017146;28;20085;-42
2023/06/01 02:40:25;;;;;;;7.40;2.88;;;;;;;10.41;69.74;101331.19;5012071;28;20053;-44
2023/06/01 02:42:52;;;;;;;7.78;2.95;;;;;;;10.36;69.40;101325.91;5006209;28;20053;-44
2023/06/01 02:45:18;;;;;;;7.65;2.85;;;;;;;10.38;69.81;101333.72;5004723;28;20054;-44
2023/06/01 02:47:45;;;;;;;6.43;2.35;;;;;;;10.37;70.04;101326.81;5027644;28;20085;-45
2023/06/01 02:50:12;;;;;;;7.97;3.40;;;;;;;10.37;70.10;101326.81;5010425;28;20066;-46
2023/06/01 02:52:39;;;;;;;6.85;2.45;;;;;;;10.39;69.95;101325.09;5002106;28;20057;-43
2023/06/01 02:55:06;;;;;;;7.85;2.50;;;;;;;10.38;70.22;101325.94;5005440;28;20058;-43
2023/06/01 02:57:32;;;;;;;7.15;2.75;;;;;;;10.39;69.61;101325.09;5002082;28;20052;-43
2023/06/01 02:59:59;;;;;;;7.68;2.63;;;;;;;10.40;69.78;101319.06;5008233;28;20065;-43
2023/06/01 03:02:26;;;;;;;6.55;2.63;;;;;;;10.35;69.77;101318.13;5003594;28;20077;-43
2023/06/01 03:04:53;;;;;;;6.22;2.33;;;;;;;10.36;69.77;101325.03;5007453;28;20485;-43
2023/06/01 03:07:20;;;;;;;6.68;2.67;;;;;;;10.36;70.28;101319.84;5005970;28;20046;-43
2023/06/01 03:09:46;;;;;;;6.97;2.58;;;;;;;10.35;70.45;101323.28;5003331;28;20517;-44
2023/06/01 03:12:13;;;;;;;4.78;2.08;;;;;;;10.36;69.71;101327.63;5001853;28;20048;-48
2023/06/01 03:14:40;;;;;;;6.43;2.85;;;;;;;10.36;70.52;101314.66;5005731;28;20053;-44
2023/06/01 03:17:06;;;;;;;7.35;2.08;;;;;;;10.35;70.23;101318.13;5002388;28;20050;-44
2023/06/01 03:19:33;;;;;;;5.47;1.80;;;;;;;10.36;69.82;101314.66;4998797;28;20667;-44
2023/06/01 03:22:00;;;;;;;6.38;2.10;;;;;;;10.35;69.70;101311.22;5003512;28;20141;-44
2023/06/01 03:24:27;;;;;;;4.85;1.95;;;;;;;10.37;70.60;101313.84;5006106;28;20136;-43
2023/06/01 03:26:55;;;;;;;5.05;1.85;;;;;;;10.37;70.72;101316.44;5004335;28;20046;-44
2023/06/01 03:29:21;;;;;;;7.30;2.10;;;;;;;10.35;70.80;101313.81;5001715;28;20051;-44
2023/06/01 03:31:48;;;;;;;7.00;2.25;;;;;;;10.38;69.82;101320.75;5019445;28;20053;-46
2023/06/01 03:34:15;;;;;;;4.55;1.92;;;;;;;10.36;69.67;101314.66;5013552;28;20053;-43
2023/06/01 03:36:45;;;;;;;5.15;1.73;;;;;;;10.33;69.87;101315.50;4999565;28;20050;-45
2023/06/01 03:39:12;;;;;;;5.50;2.17;;;;;;;10.33;69.85;101312.06;5005912;28;20052;-44
2023/06/01 03:41:39;;;;;;;7.10;1.90;;;;;;;10.27;70.57;101313.66;5007738;28;20430;-42
2023/06/01 03:44:05;;;;;;;4.75;2.30;;;;;;;10.28;70.34;101312.84;4997169;28;20080;-43
2023/06/01 03:46:32;;;;;;;4.90;2.22;;;;;;;10.31;70.38;101311.13;5001738;28;20056;-45
2023/06/01 03:48:59;;;;;;;3.17;1.70;;;;;;;10.33;70.06;101314.63;4998202;28;20497;-43
2023/06/01 03:51:25;;;;;;;4.20;1.85;;;;;;;10.33;70.03;101317.22;5003280;28;20046;-43
2023/06/01 03:53:52;;;;;;;5.05;1.63;;;;;;;10.34;70.25;101311.19;4998407;28;20461;-42
2023/06/01 03:56:19;;;;;;;5.53;2.20;;;;;;;10.34;70.63;101306.03;5003894;28;20049;-44
2023/06/01 03:58:46;;;;;;;3.70;1.92;;;;;;;10.35;69.59;101310.34;5000894;28;20064;-43
2023/06/01 04:01:16;;;;;;;5.85;2.22;;;;;;;10.36;70.32;101315.56;4999099;28;20082;-44
2023/06/01 04:03:43;;;;;;;5.80;2.55;;;;;;;10.35;70.42;101305.16;5006442;28;20512;-44
2023/06/01 04:06:17;;;;;;;6.38;2.15;;;;;;;10.36;70.05;101299.13;5003822;28;20073;-44
2023/06/01 04:08:58;;;;;;;5.72;2.30;;;;;;;10.37;70.52;101298.31;5006297;28;20050;-45
2023/06/01 04:11:24;;;;;;;4.47;1.67;;;;;;;10.37;70.55;101300.91;5003551;28;20064;-43
2023/06/01 04:13:51;;;;;;;6.00;2.08;;;;;;;10.34;70.83;101306.88;5003615;28;20061;-44
2023/06/01 04:16:18;;;;;;;7.68;2.28;;;;;;;10.35;70.01;101305.16;5006331;28;20129;-44
2023/06/01 04:18:45;;;;;;;8.93;2.60;;;;;;;10.35;70.89;101310.34;5006492;28;20706;-44
2023/06/01 04:21:11;;;;;;;4.30;2.33;;;;;;;10.32;71.21;101307.69;5000534;28;20046;-42
2023/06/01 04:23:38;;;;;;;7.68;2.10;;;;;;;10.32;70.31;101307.69;5005236;28;20050;-45
2023/06/01 04:26:06;;;;;;;7.82;1.95;;;;;;;10.27;70.88;101310.22;5005422;28;20045;-43
2023/06/01 04:28:33;;;;;;;3.17;1.67;;;;;;;10.28;70.23;101310.25;4998142;28;20398;-45
2023/06/01 04:31:00;;;;;;;4.05;1.80;;;;;;;10.26;71.11;101313.63;5000942;28;20510;-44
2023/06/01 04:33:27;;;;;;;5.10;1.73;;;;;;;10.23;70.83;101308.41;4993961;28;20789;-43
2023/06/01 04:35:54;;;;;;;5.93;2.15;;;;;;;10.22;70.46;101306.66;5005743;28;20053;-46
2023/06/01 04:38:24;;;;;;;6.63;2.35;;;;;;;10.23;70.91;101309.28;5001400;28;20111;-45
2023/06/01 04:40:53;;;;;;;3.95;1.48;;;;;;;10.19;70.73;101302.28;5002745;28;20514;-44
2023/06/01 04:43:20;;;;;;;4.25;1.77;;;;;;;10.21;70.61;101305.78;4999967;28;20114;-43
2023/06/01 04:45:47;;;;;;;5.95;2.33;;;;;;;10.24;70.13;101305.81;5002345;28;20042;-43
2023/06/01 04:48:16;;;;;;;4.15;1.65;;;;;;;10.24;71.02;101302.38;4996991;28;20049;-44
2023/06/01 04:50:44;;;;;;;5.38;1.98;;;;;;;10.26;70.85;101298.97;5002362;28;20580;-43
2023/06/01 04:53:11;;;;;;;6.35;1.92;;;;;;;10.27;70.36;101300.72;5000290;28;20073;-43
2023/06/01 04:55:37;;;;;;;4.68;1.92;;;;;;;10.27;70.86;101298.13;4999831;28;20054;-44
2023/06/01 04:58:05;;;;;;;9.20;2.42;;;;;;;10.26;70.32;101301.56;5002107;28;20080;-43
2023/06/01 05:00:31;;;;;;;5.85;2.30;;;;;;;10.26;70.36;101288.63;4997850;28;20050;-43
2023/06/01 05:02:58;;;;;;;4.50;2.30;;;;;;;10.26;70.94;101298.09;5006161;28;20046;-43
2023/06/01 05:05:25;;;;;;;6.32;1.88;;;;;;;10.27;70.11;101300.72;4999117;28;20042;-46
2023/06/01 05:07:52;;;;;;;7.85;2.63;;;;;;;10.26;69.94;101298.97;4999773;28;20410;-42
2023/06/01 05:10:18;;;;;;;7.05;1.90;;;;;;;10.30;70.11;101294.72;5001448;28;20388;-43
2023/06/01 05:12:45;;;;;;;3.85;1.77;;;;;;;10.27;70.68;101295.53;5004561;28;20048;-42
2023/06/01 05:15:12;;;;;;;6.28;2.05;;;;;;;10.26;70.17;101298.97;5001440;28;20057;-43
2023/06/01 05:17:38;;;;;;;4.28;1.70;;;;;;;10.26;70.95;101301.56;5000575;28;20050;-43
2023/06/01 05:20:08;;;;;;;7.93;2.50;;;;;;;10.25;70.49;101302.41;4998997;28;20104;-44
2023/06/01 05:22:36;;;;;;;8.73;2.30;;;;;;;10.25;70.32;101291.19;5001918;28;20093;-42
2023/06/01 05:25:03;;;;;;;5.28;1.67;;;;;;;10.24;70.76;101295.47;5001872;28;20727;-43
2023/06/01 05:27:29;;;;;;;6.85;2.65;;;;;;;10.22;70.42;101294.59;4998524;28;20438;-44
2023/06/01 05:29:56;;;;;;;4.85;2.03;;;;;;;10.20;70.99;101291.06;5000605;28;20045;-46
2023/06/01 05:32:23;;;;;;;4.50;1.92;;;;;;;10.21;70.29;101290.25;5005322;28;20046;-44
2023/06/01 05:34:49;;;;;;;4.95;1.83;;;;;;;10.29;70.90;101298.16;5005828;28;20054;-43
2023/06/01 05:37:16;;;;;;;6.07;1.95;;;;;;;10.27;70.88;101284.31;5001761;28;20665;-44
2023/06/01 05:39:42;;;;;;;7.28;2.33;;;;;;;10.29;70.86;101285.22;4998455;28;20051;-44
2023/06/01 05:42:09;;;;;;;6.28;2.45;;;;;;;10.29;70.97;101287.78;4999485;28;20057;-45
2023/06/01 05:44:36;;;;;;;6.80;1.83;;;;;;;10.29;70.29;101298.16;4997027;28;20047;-45
2023/06/01 05:47:03;;;;;;;5.78;2.22;;;;;;;10.26;71.02;101293.78;5002313;28;20505;-43
2023/06/01 05:49:31;;;;;;;5.60;2.08;;;;;;;10.31;70.75;101291.31;5001175;28;20536;-44
2023/06/01 05:51:58;;;;;;;8.52;2.17;;;;;;;10.34;71.12;101301.69;4999424;28;20100;-45
2023/06/01 05:54:25;;;;;;;6.40;2.42;;;;;;;10.33;70.84;101294.78;5003684;28;20564;-43
2023/06/01 05:56:51;;;;;;;6.05;2.53;;;;;;;10.38;70.62;101300.03;5000921;28;20057;-43
2023/06/01 05:59:18;;;;;;;5.43;2.30;;;;;;;10.41;70.74;101294.94;5004709;28;20045;-45
2023/06/01 06:01:44;;;;;;;6.75;2.45;;;;;;;10.41;70.56;101293.19;5000326;28;20058;-44
2023/06/01 06:04:11;;;;;;;8.63;2.47;;;;;;;10.43;70.29;101295.81;4999259;28;20108;-45
2023/06/01 06:06:38;;;;;;;6.13;2.45;;;;;;;10.45;70.31;101283.81;5000715;28;20444;-42
2023/06/01 06:09:05;;;;;;;11.70;2.55;;;;;;;10.47;70.94;101292.47;4998670;28;20046;-44
2023/06/01 06:11:31;;;;;;;7.35;2.20;;;;;;;10.45;70.28;101294.16;5002160;28;20433;-44
2023/06/01 06:13:58;;;;;;;7.07;2.55;;;;;;;10.47;70.84;101292.47;4996702;28;20056;-42
2023/06/01 06:16:25;;;;;;;7.30;2.53;;;;;;;10.45;70.13;101289.00;5001265;28;20052;-45
2023/06/01 06:18:52;;;;;;;7.53;2.67;;;;;;;10.48;70.31;101294.22;4999760;28;20057;-43
2023/06/01 06:21:18;;;;;;;8.35;2.72;;;;;;;10.51;70.31;101298.59;4998935;28;20068;-42
2023/06/01 06:23:45;;;;;;;8.68;1.90;;;;;;;10.46;70.32;101301.09;5001620;28;20042;-44
2023/06/01 06:26:11;;;;;;;7.38;2.47;;;;;;;10.51;69.87;101299.44;5008776;28;20104;-42
2023/06/01 06:28:38;;;;;;;6.68;2.08;;;;;;;10.48;70.82;101294.22;5002758;28;20108;-47
2023/06/01 06:31:05;;;;;;;7.35;2.83;;;;;;;10.48;70.25;101294.22;5001709;28;20050;-45
2023/06/01 06:33:31;;;;;;;7.15;2.45;;;;;;;10.53;70.64;101292.59;5007875;28;20050;-45
2023/06/01 06:35:58;;;;;;;5.55;2.47;;;;;;;10.55;69.86;101295.19;5005899;28;20054;-44
2023/06/01 06:38:25;;;;;;;6.00;1.95;;;;;;;10.56;69.93;101301.25;5006406;28;20042;-49
2023/06/01 06:40:51;;;;;;;6.20;2.38;;;;;;;10.59;70.37;101301.28;5006369;28;20046;-48
2023/06/01 06:43:18;;;;;;;7.72;2.95;;;;;;;10.62;70.35;101302.25;5003515;28;20697;-44
2023/06/01 06:45:45;;;;;;;9.60;3.58;;;;;;;10.62;69.39;101299.66;5002298;28;20053;-46
2023/06/01 06:48:11;;;;;;;7.32;3.05;;;;;;;10.66;69.46;101298.84;5006031;28;20398;-44
2023/06/01 06:50:41;;;;;;;6.75;2.55;;;;;;;10.68;69.96;101296.28;5007190;28;20064;-45
2023/06/01 06:53:08;;;;;;;6.93;2.40;;;;;;;10.72;69.32;101298.09;4999808;28;20526;-45
2023/06/01 06:55:34;;;;;;;7.35;2.30;;;;;;;10.74;69.56;101291.19;5005868;28;20133;-42
2023/06/01 06:58:01;;;;;;;5.50;2.10;;;;;;;10.75;69.36;101292.97;5001805;28;20057;-45
2023/06/01 07:00:28;;;;;;;7.72;3.38;;;;;;;10.78;69.87;101292.97;5001017;28;20046;-44
2023/06/01 07:02:55;;;;;;;6.28;2.30;;;;;;;10.79;69.91;101294.75;5004058;28;20042;-48
2023/06/01 07:05:22;;;;;;;7.40;2.70;;;;;;;10.85;69.39;101293.09;5002777;28;20056;-44
2023/06/01 07:07:48;;;;;;;6.88;2.20;;;;;;;10.84;70.02;101299.13;5006660;28;20193;-48
2023/06/01 07:10:15;;;;;;;9.25;2.63;;;;;;;10.93;69.05;101296.69;5006480;28;20502;-42
2023/06/01 07:12:42;;;;;;;9.15;2.50;;;;;;;10.95;68.74;101302.78;5006418;28;20046;-45
2023/06/01 07:15:09;;;;;;;4.78;2.05;;;;;;;10.93;68.81;101301.88;5000275;28;20053;-42
2023/06/01 07:17:36;;;;;;;5.95;2.75;;;;;;;10.96;69.32;101301.91;5006959;28;20594;-45
2023/06/01 07:20:06;;;;;;;7.10;2.40;;;;;;;10.96;68.57;101307.09;5000223;28;20054;-46
2023/06/01 07:22:33;;;;;;;11.00;3.33;;;;;;;10.97;69.69;101308.84;5003050;28;20043;-45
2023/06/01 07:25:00;;;;;;;8.63;2.70;;;;;;;10.97;68.93;101308.00;5000876;28;20080;-43
2023/06/01 07:27:27;;;;;;;10.13;3.20;;;;;;;11.01;69.17;101305.44;5004176;28;20050;-43
2023/06/01 07:29:55;;;;;;;7.63;2.47;;;;;;;11.02;69.04;101304.59;5005334;28;20050;-47
2023/06/01 07:32:23;;;;;;;6.07;2.42;;;;;;;11.00;69.77;101305.41;5006710;28;20052;-43
2023/06/01 07:34:50;;;;;;;6.35;1.98;;;;;;;10.93;69.52;101305.34;5006731;28;20060;-44
2023/06/01 07:37:21;;;;;;;6.22;2.22;;;;;;;11.03;69.49;101308.06;5003291;28;20054;-43
2023/06/01 07:39:49;;;;;;;8.48;2.58;;;;;;;11.04;69.38;101310.69;5000183;28;20236;-44
2023/06/01 07:42:15;;;;;;;6.63;2.55;;;;;;;11.13;68.82;101319.44;4998446;28;20053;-42
2023/06/01 07:44:45;;;;;;;7.60;2.95;;;;;;;11.17;69.42;101316.06;5006258;28;20042;-43
2023/06/01 07:47:12;;;;;;;7.28;2.47;;;;;;;11.19;69.54;101317.81;5000032;28;20045;-46
2023/06/01 07:49:38;;;;;;;8.30;3.33;;;;;;;11.24;68.72;101320.50;5003369;28;20046;-46
2023/06/01 07:52:07;;;;;;;7.72;2.97;;;;;;;11.31;68.34;101319.72;5006612;28;20498;-43
2023/06/01 07:54:36;;;;;;;8.45;3.38;;;;;;;11.32;67.98;101321.47;5002943;28;20491;-42
2023/06/01 07:57:04;;;;;;;7.10;2.97;;;;;;;11.29;67.89;101316.22;5000965;28;20046;-43
2023/06/01 07:59:31;;;;;;;6.15;2.50;;;;;;;11.31;68.20;101319.72;5004305;28;20058;-44
2023/06/01 08:02:00;;;;;;;8.32;2.67;;;;;;;11.35;68.27;101330.16;5003314;28;20137;-44
2023/06/01 08:04:32;;;;;;;8.00;3.00;;;;;;;11.39;67.87;101324.16;4997006;28;20050;-43
2023/06/01 08:06:59;;;;;;;8.52;2.65;;;;;;;11.44;67.42;101330.28;5003858;28;20422;-44
2023/06/01 08:09:26;;;;;;;7.30;3.20;;;;;;;11.50;68.18;101325.19;5003819;28;20056;-42
2023/06/01 08:11:53;;;;;;;10.63;2.55;;;;;;;11.50;68.08;101325.19;5000835;28;20062;-46
2023/06/01 08:14:20;;;;;;;9.80;2.47;;;;;;;11.57;68.23;101319.25;5002041;28;20050;-45
2023/06/01 08:16:46;;;;;;;7.05;3.22;;;;;;;11.62;67.15;101310.63;5002973;28;20085;-42
2023/06/01 08:19:13;;;;;;;8.25;3.00;;;;;;;11.69;67.80;101304.69;4999276;28;20076;-42
2023/06/01 08:21:41;;;;;;;5.55;2.35;;;;;;;11.70;67.12;101309.00;5000723;28;20053;-42
2023/06/01 08:24:08;;;;;;;10.65;3.42;;;;;;;11.77;66.81;101308.25;5001126;28;20058;-46
2023/06/01 08:26:35;;;;;;;10.00;3.25;;;;;;;11.78;66.66;101320.38;5000548;28;20038;-43
2023/06/01 08:29:01;;;;;;;8.00;2.97;;;;;;;11.85;66.66;101320.44;5004434;28;20609;-44
2023/06/01 08:31:28;;;;;;;6.32;2.70;;;;;;;11.83;66.56;101316.09;5004515;28;20041;-44
2023/06/01 08:33:55;;;;;;;10.52;3.25;;;;;;;11.87;67.11;101321.31;5004707;28;20054;-46
2023/06/01 08:36:22;;;;;;;9.07;3.38;;;;;;;11.92;66.36;101322.28;5003113;28;20049;-43
2023/06/01 08:38:50;;;;;;;8.05;3.08;;;;;;;11.99;67.05;101320.63;5004873;28;20505;-46
2023/06/01 08:41:25;;;;;;;11.15;3.35;;;;;;;12.03;67.30;101315.47;5004272;28;20073;-43
2023/06/01 08:43:57;;;;;;;7.72;3.13;;;;;;;12.10;65.97;101320.75;5001420;28;20104;-43
2023/06/01 08:46:26;;;;;;;9.68;3.13;;;;;;;12.08;66.37;101313.84;5002084;28;20050;-44
2023/06/01 08:48:55;;;;;;;7.95;2.80;;;;;;;12.03;66.68;101320.66;4999487;28;20077;-46
2023/06/01 08:51:23;;;;;;;6.63;2.17;;;;;;;12.09;66.54;101314.69;4999887;28;20573;-46
2023/06/01 08:53:50;;;;;;;6.38;2.75;;;;;;;12.19;66.18;101315.66;5000471;28;20064;-45
2023/06/01 08:56:19;;;;;;;6.13;2.75;;;;;;;12.25;66.09;101320.06;5001157;28;20053;-46
2023/06/01 08:58:46;;;;;;;9.93;2.50;;;;;;;12.27;66.67;101319.25;4991694;28;20060;-43
2023/06/01 09:01:20;;;;;;;7.43;3.00;;;;;;;12.32;66.51;101317.56;5002322;28;20076;-43
2023/06/01 09:03:49;;;;;;;8.50;3.30;;;;;;;12.36;65.40;101318.44;4999944;28;20056;-45
2023/06/01 09:06:16;;;;;;;6.65;2.35;;;;;;;12.39;65.64;101317.63;5001823;28;20057;-42
2023/06/01 09:08:45;;;;;;;5.68;2.85;;;;;;;12.36;66.17;101315.84;5001890;28;20046;-44
2023/06/01 09:11:12;;;;;;;9.73;2.92;;;;;;;12.44;65.90;101310.75;5004389;28;20125;-46
2023/06/01 09:13:40;;;;;;;7.93;3.03;;;;;;;12.49;66.47;101309.03;5000314;28;20065;-46
2023/06/01 09:16:07;;;;;;;7.85;3.03;;;;;;;12.54;65.76;101317.78;4996966;28;20497;-43
2023/06/01 09:18:34;;;;;;;8.65;3.10;;;;;;;12.56;65.11;101316.03;4998401;28;20046;-43
2023/06/01 09:21:16;;;;;;;11.35;3.72;;;;;;;12.52;64.92;101316.88;4994826;28;20121;-44
2023/06/01 09:23:43;;;;;;;13.68;3.17;;;;;;;12.53;65.02;101316.00;5001447;28;20129;-42
2023/06/01 09:26:12;;;;;;;10.32;3.75;;;;;;;12.58;66.06;101314.34;5000060;28;20064;-45
2023/06/01 09:28:58;;;;;;;8.07;2.78;;;;;;;12.57;65.65;101309.13;4999663;28;20509;-44
2023/06/01 09:31:44;;;;;;;7.95;3.38;;;;;;;12.64;65.14;101312.66;5001466;28;20042;-44
2023/06/01 09:34:16;;;;;;;8.38;3.10;;;;;;;12.70;64.65;101307.53;4997689;28;20042;-44
2023/06/01 09:36:44;;;;;;;11.52;3.63;;;;;;;12.82;65.58;101318.00;5003595;28;20100;-47
2023/06/01 09:39:13;;;;;;;10.30;3.65;;;;;;;12.93;65.14;101314.59;4998619;28;20468;-44
2023/06/01 09:44:36;;;;;;;10.85;3.78;;;;;;;13.06;64.28;101316.47;5078815;27;20402;-45
2023/06/01 09:47:04;;;;;;;9.45;3.20;;;;;;;13.15;64.65;101314.78;5025810;28;20049;-47
2023/06/01 09:49:34;;;;;;;8.82;3.38;;;;;;;13.17;64.34;101315.69;5022726;28;20115;-43
2023/06/01 09:57:22;;;;;;;9.40;3.85;;;;;;;13.23;63.70;101313.97;5053771;27;21143;-46
2023/06/01 09:59:49;;;;;;;6.60;3.42;;;;;;;13.22;63.48;101311.38;4993442;28;20050;-47
2023/06/01 10:02:20;;;;;;;8.00;3.97;;;;;;;13.24;63.06;101309.63;4997048;28;20411;-45
2023/06/01 10:04:49;;;;;;;12.00;3.85;;;;;;;13.31;63.84;101307.97;4991690;28;20055;-44
2023/06/01 10:07:18;;;;;;;8.35;4.13;;;;;;;13.32;63.36;101301.88;4987387;28;20055;-43
2023/06/01 10:09:54;;;;;;;6.45;2.92;;;;;;;13.34;63.43;101298.44;5000828;28;20054;-44
2023/06/01 10:12:22;;;;;;;8.70;3.55;;;;;;;13.35;63.76;101297.56;4992292;28;20054;-44
2023/06/01 10:14:50;;;;;;;8.30;3.38;;;;;;;13.42;63.59;101298.47;4996394;28;20502;-44
2023/06/01 10:17:19;;;;;;;11.43;3.97;;;;;;;13.48;62.87;101308.06;5004058;28;20134;-43
2023/06/01 10:19:46;;;;;;;8.77;3.45;;;;;;;13.45;62.97;101302.81;4987618;28;20038;-45
2023/06/01 10:22:13;;;;;;;11.30;3.75;;;;;;;13.52;63.25;101304.63;4993938;28;20553;-45
2023/06/01 10:24:41;;;;;;;10.25;4.00;;;;;;;13.58;62.53;101307.25;4996295;28;20054;-44
2023/06/01 10:29:49;;;;;;;8.18;3.60;;;;;;;13.53;61.90;101308.97;5058131;28;20543;-43
2023/06/01 10:40:46;;;;;;;8.90;4.93;;;;;;;13.69;62.55;101307.31;5028698;27;20399;-43
2023/06/01 10:46:34;;;;;;;7.20;3.17;;;;;;;13.93;61.91;101299.59;5062327;27;20432;-47
2023/06/01 10:49:02;;;;;;;9.20;3.35;;;;;;;14.17;62.09;101303.13;5041434;28;20145;-43
2023/06/01 10:51:29;;;;;;;10.23;3.63;;;;;;;14.30;61.56;101297.09;5041677;28;20049;-46
2023/06/01 10:54:32;;;;;;;6.13;3.28;;;;;;;14.41;61.19;101297.09;5043237;28;20511;-43
2023/06/01 10:57:20;;;;;;;10.45;3.20;;;;;;;14.52;61.00;101300.59;5039091;28;20041;-44
2023/06/01 11:10:58;;;;;;;9.63;4.70;;;;;;;14.77;59.86;101299.78;5027530;27;20417;-45
2023/06/01 11:13:35;;;;;;;12.70;5.05;;;;;;;14.83;60.44;101298.91;5006711;28;20042;-45
2023/06/01 11:18:49;;;;;;;10.85;4.80;;;;;;;15.18;58.71;101294.50;5046735;28;20755;-45
2023/06/01 11:21:18;;;;;;;8.18;3.65;;;;;;;15.08;59.77;101296.25;5006244;28;20054;-43
2023/06/01 11:23:45;;;;;;;8.05;3.53;;;;;;;15.20;60.43;101292.78;4999475;28;20046;-46
2023/06/01 11:26:15;;;;;;;11.00;4.35;;;;;;;15.29;59.97;101292.72;5004278;28;20049;-46
2023/06/01 11:28:43;;;;;;;9.38;3.88;;;;;;;15.29;59.37;101298.84;5005226;28;20512;-44
2023/06/01 11:31:11;;;;;;;9.23;4.50;;;;;;;15.27;59.14;101302.31;5004631;28;20073;-44
2023/06/01 11:33:40;;;;;;;10.85;3.58;;;;;;;15.26;58.84;101300.56;5006913;28;20140;-44
2023/06/01 11:36:10;;;;;;;6.63;2.75;;;;;;;15.19;58.60;101296.25;4992977;28;20409;-44
2023/06/01 11:38:40;;;;;;;6.88;3.25;;;;;;;15.23;59.51;101301.44;5005228;28;20049;-44
2023/06/01 11:41:08;;;;;;;9.25;3.70;;;;;;;15.24;59.50;101302.31;5004672;28;20046;-46
2023/06/01 11:43:35;;;;;;;7.82;3.95;;;;;;;15.23;58.99;101301.44;5035029;28;20429;-44
2023/06/01 11:46:05;;;;;;;8.10;3.50;;;;;;;15.22;59.02;101299.72;5015577;28;20417;-43
2023/06/01 11:49:05;;;;;;;10.45;3.92;;;;;;;15.14;58.75;101302.31;5008423;28;20042;-46
2023/06/01 11:51:36;;;;;;;11.38;3.92;;;;;;;15.24;58.89;101310.16;4999913;28;20053;-44
2023/06/01 11:54:04;;;;;;;8.65;3.97;;;;;;;15.19;58.63;101298.88;4986062;28;20049;-45
2023/06/01 11:56:33;;;;;;;13.27;5.15;;;;;;;15.20;59.25;101298.00;5012412;28;20041;-45
2023/06/01 11:59:02;;;;;;;10.48;4.78;;;;;;;15.24;59.78;101299.72;5008428;28;20054;-44
2023/06/01 12:01:29;;;;;;;8.45;3.92;;;;;;;15.26;59.06;101304.06;5001951;28;20046;-46
2023/06/01 12:03:56;;;;;;;9.48;4.45;;;;;;;15.28;59.07;101301.44;5008182;28;20070;-43
2023/06/01 12:06:26;;;;;;;10.25;4.38;;;;;;;15.41;59.32;101294.47;5001640;28;20065;-46
2023/06/01 12:08:54;;;;;;;12.18;4.00;;;;;;;15.59;59.07;101301.34;5001785;28;20133;-44
2023/06/01 12:11:26;;;;;;;10.77;4.57;;;;;;;15.75;58.76;101293.47;5009547;28;20438;-45
2023/06/01 12:13:55;;;;;;;11.20;3.78;;;;;;;15.90;58.74;101303.84;5013772;28;20046;-45